Quick Links (Output Below):   Max & Min Temps   /   Climate Reports   /   Zone Forecasts
River Forecasts   /   Forestry Forecasts   /   Aviation Forecasts   /   Radars   /   Features

Terminal Aerodrome Forecast (Monticello)

Pick a Site:
Arkadelphia | El Dorado | Fayetteville | Fort Smith | Harrison | Highfill | Hot Springs | Jonesboro
Little Rock | Monticello | Mountain Home | Pine Bluff | Texarkana
 Forecast 

KLLQ 280521Z 2806/0106 04006KT P6SM SCT050 BKN100
     FM281400 05007KT P6SM SCT025 OVC050
     FM282000 09007KT 6SM BR OVC030
     FM010100 08005KT P6SM OVC040=


 Latest METARs (Observations) 
How to Decode METARs
06Z KLLQ 280553Z AUTO 03005KT 10SM OVC085 M02/M07 A3051 RMK AO2 SLP333
         T10171067 11011 21017 400111044 58003
         
05Z KLLQ 280453Z AUTO 04006KT 10SM OVC090 M02/M07 A3052 RMK AO2 SLP335
         T10171067
         
04Z KLLQ 280353Z AUTO 05008KT 10SM OVC095 M02/M07 A3052 RMK AO2 SLP336
         T10171067
         
03Z KLLQ 280253Z AUTO 04006KT 10SM OVC100 M02/M07 A3052 RMK AO2 SLP337
         T10171072 51005
         
02Z KLLQ 280153Z AUTO 05012KT 10SM OVC070 M02/M08 A3051 RMK AO2 SLP335
         T10171078
         
01Z KLLQ 280053Z AUTO 04008KT 10SM OVC080 M02/M08 A3052 RMK AO2 SLP338
         T10171078
         
00Z KLLQ 272353Z AUTO 05014G20KT 10SM FEW027 OVC080 M02/M08 A3051 RMK
         AO2 SLP333 T10171078 10011 21017 58001
         
***** Today's Observations (Above) *****


23Z KLLQ 272253Z AUTO 03008KT 10SM FEW029 OVC095 M01/M08 A3051 RMK AO2
         SLP336 T10111078
         
22Z KLLQ 272153Z AUTO 36005KT 10SM SCT032 OVC100 00/M07 A3052 RMK AO2
         SLP336 T00001072
         
21Z KLLQ 272053Z AUTO 02006KT 10SM FEW031 BKN110 01/M07 A3051 RMK AO2
         SLP333 T00111072 55008
         
***** Yesterday's Observations (Above) *****


Back to Main Page
http://www.srh.noaa.gov/lzk/qfcst.php

USA.gov is the U.S. government's official web portal to all federal, state and local government web resources and services.